createdAt,value
2022-09-14T00:01:40.578Z,100662.16
2022-09-14T00:04:12.321Z,100673.63
2022-09-14T00:06:40.521Z,100669.28
2022-09-14T00:09:11.396Z,100674.81
2022-09-14T00:11:41.406Z,100673.19
2022-09-14T00:14:09.562Z,100672.16
2022-09-14T00:16:40.893Z,100676.44
2022-09-14T00:19:17.204Z,100674.81
2022-09-14T00:21:45.321Z,100673.41
2022-09-14T00:24:13.874Z,100679.09
2022-09-14T00:26:41.986Z,100684.59
2022-09-14T00:29:11.291Z,100674.16
2022-09-14T00:31:41.293Z,100676.22
2022-09-14T00:34:12.602Z,100674.75
2022-09-14T00:36:43.365Z,100673.34
2022-09-14T00:39:12.192Z,100670.47
2022-09-14T00:41:42.554Z,100667.19
2022-09-14T00:44:43.870Z,100665.94
2022-09-14T00:47:15.274Z,100665.53
2022-09-14T00:49:43.897Z,100668.78
2022-09-14T00:52:16.009Z,100674.09
2022-09-14T00:54:48.036Z,100673.25
2022-09-14T00:57:17.456Z,100675.28
2022-09-14T00:59:47.252Z,100678.31
2022-09-14T01:02:19.004Z,100676.91
2022-09-14T01:04:48.523Z,100672.41
2022-09-14T01:07:28.006Z,100676.47
2022-09-14T01:10:05.618Z,100670.13
2022-09-14T01:12:47.035Z,100662.75
2022-09-14T01:15:22.374Z,100669.47
2022-09-14T01:18:08.499Z,100671.50
2022-09-14T01:20:40.046Z,100673.94
2022-09-14T01:23:17.126Z,100678.81
2022-09-14T01:26:06.072Z,100675.56
2022-09-14T01:28:42.254Z,100680.22
2022-09-14T01:31:24.346Z,100673.88
2022-09-14T01:33:56.974Z,100680.41
2022-09-14T01:36:28.219Z,100682.75
2022-09-14T01:38:57.726Z,100684.34
2022-09-14T01:41:31.479Z,100684.34
2022-09-14T01:44:06.463Z,100676.16
2022-09-14T01:46:40.415Z,100684.69
2022-09-14T01:49:16.192Z,100681.81
2022-09-14T01:51:48.542Z,100680.53
2022-09-14T01:54:22.752Z,100690.91
2022-09-14T01:56:57.200Z,100690.66
2022-09-14T01:59:31.602Z,100689.41
2022-09-14T02:02:05.334Z,100693.44
2022-09-14T02:04:42.410Z,100699.16
2022-09-14T02:07:11.298Z,100709.91
2022-09-14T02:09:40.529Z,100704.19
2022-09-14T02:12:09.294Z,100713.13
2022-09-14T02:14:39.042Z,100712.50
2022-09-14T02:17:08.436Z,100721.66
2022-09-14T02:19:42.463Z,100720.22
2022-09-14T02:22:10.585Z,100717.94
2022-09-14T02:24:38.693Z,100718.31
2022-09-14T02:27:08.174Z,100716.66
2022-09-14T02:29:38.397Z,100722.53
2022-09-14T02:32:16.657Z,100722.53
2022-09-14T02:34:57.293Z,100720.88
2022-09-14T02:37:31.921Z,100729.03
2022-09-14T02:40:09.501Z,100723.75
2022-09-14T02:42:47.272Z,100719.47
2022-09-14T02:45:25.030Z,100709.84
2022-09-14T02:47:58.215Z,100721.84
2022-09-14T02:50:36.014Z,100706.34
2022-09-14T02:53:11.874Z,100716.28
2022-09-14T02:55:44.922Z,100723.78
2022-09-14T02:58:14.737Z,100722.31
2022-09-14T03:00:46.595Z,100726.00
2022-09-14T03:03:21.751Z,100720.50
2022-09-14T03:05:49.861Z,100721.88
2022-09-14T03:08:18.048Z,100718.41
2022-09-14T03:10:46.269Z,100717.78
2022-09-14T03:13:14.665Z,100720.63
2022-09-14T03:15:44.292Z,100724.47
2022-09-14T03:18:14.634Z,100726.84
2022-09-14T03:20:43.062Z,100725.22
2022-09-14T03:23:11.948Z,100730.50
2022-09-14T03:25:42.231Z,100725.38
2022-09-14T03:28:11.138Z,100723.94
2022-09-14T03:30:39.330Z,100728.59
2022-09-14T03:33:09.009Z,100725.31
2022-09-14T03:35:37.078Z,100723.03
2022-09-14T03:38:05.230Z,100722.41
2022-09-14T03:40:33.605Z,100723.03
2022-09-14T03:43:01.761Z,100732.78
2022-09-14T03:45:29.937Z,100724.69
2022-09-14T03:47:58.146Z,100715.34
2022-09-14T03:50:27.699Z,100715.81
2022-09-14T03:52:56.365Z,100717.06
2022-09-14T03:55:24.680Z,100715.50
2022-09-14T03:57:56.104Z,100714.94
2022-09-14T04:00:24.929Z,100709.47
2022-09-14T04:02:53.399Z,100723.97
2022-09-14T04:05:22.222Z,100708.16
2022-09-14T04:07:51.832Z,100706.94
2022-09-14T04:10:20.080Z,100710.25
2022-09-14T04:12:48.402Z,100707.84
2022-09-14T04:15:16.687Z,100705.81
2022-09-14T04:17:44.866Z,100701.78
2022-09-14T04:20:13.128Z,100699.13
2022-09-14T04:22:41.248Z,100694.50
2022-09-14T04:25:11.281Z,100699.38
2022-09-14T04:27:39.523Z,100695.94
2022-09-14T04:30:08.657Z,100692.09
2022-09-14T04:32:36.792Z,100689.44
2022-09-14T04:35:05.282Z,100693.53
2022-09-14T04:37:33.729Z,100686.03
2022-09-14T04:40:02.094Z,100685.41
2022-09-14T04:42:32.339Z,100682.94
2022-09-14T04:45:00.469Z,100684.41
2022-09-14T04:47:30.897Z,100682.38
2022-09-14T04:49:58.968Z,100678.69
2022-09-14T04:52:27.084Z,100676.25
2022-09-14T04:54:55.228Z,100671.75
2022-09-14T04:57:23.345Z,100668.09
2022-09-14T04:59:52.912Z,100667.28
2022-09-14T05:02:21.037Z,100669.75
2022-09-14T05:04:49.213Z,100673.41
2022-09-14T05:07:17.519Z,100671.59
2022-09-14T05:09:45.708Z,100673.41
2022-09-14T05:12:13.809Z,100668.94
2022-09-14T05:14:41.870Z,100669.94
2022-09-14T05:17:11.319Z,100669.75
2022-09-14T05:19:39.488Z,100673.41
2022-09-14T05:22:07.697Z,100662.44
2022-09-14T05:24:35.914Z,100664.47
2022-09-14T05:27:04.020Z,100668.94
2022-09-14T05:29:32.553Z,100670.94
2022-09-14T05:32:00.796Z,100673.41
2022-09-14T05:34:30.378Z,100667.13
2022-09-14T05:36:58.554Z,100676.50
2022-09-14T05:39:26.673Z,100660.22
2022-09-14T05:41:55.137Z,100665.72
2022-09-14T05:44:23.396Z,100676.31
2022-09-14T05:46:51.517Z,100663.69
2022-09-14T05:49:19.724Z,100678.31
2022-09-14T05:51:49.276Z,100672.41
2022-09-14T05:54:17.425Z,100676.31
2022-09-14T05:56:45.489Z,100674.50
2022-09-14T05:59:13.958Z,100670.81
2022-09-14T06:01:42.110Z,100676.13
2022-09-14T06:04:12.594Z,100674.28
2022-09-14T06:06:40.793Z,100670.63
2022-09-14T06:09:10.236Z,100676.38
2022-09-14T06:11:38.415Z,100681.47
2022-09-14T06:14:07.618Z,100675.53
2022-09-14T06:16:36.226Z,100674.31
2022-09-14T06:19:05.206Z,100677.19
2022-09-14T06:21:35.619Z,100685.56
2022-09-14T06:24:04.667Z,100682.91
2022-09-14T06:26:34.563Z,100684.75
2022-09-14T06:29:02.720Z,100686.38
2022-09-14T06:31:30.831Z,100684.94
2022-09-14T06:33:59.181Z,100694.34
2022-09-14T06:36:28.904Z,100698.41
2022-09-14T06:38:57.637Z,100687.00
2022-09-14T06:41:30.530Z,100690.28
2022-09-14T06:44:02.026Z,100690.66
2022-09-14T06:46:32.819Z,100691.03
2022-09-14T06:49:03.183Z,100696.34
2022-09-14T06:51:33.834Z,100689.84
2022-09-14T06:54:02.618Z,100687.81
2022-09-14T06:56:33.355Z,100685.38
2022-09-14T06:59:03.731Z,100683.38
2022-09-14T07:01:31.934Z,100700.91
2022-09-14T07:04:01.019Z,100696.63
2022-09-14T07:06:31.399Z,100688.84
2022-09-14T07:08:59.525Z,100694.94
2022-09-14T07:11:29.685Z,100700.44
2022-09-14T07:13:59.104Z,100696.97
2022-09-14T07:16:28.939Z,100695.97
2022-09-14T07:18:57.975Z,100704.94
2022-09-14T07:21:26.962Z,100706.38
2022-09-14T07:23:56.534Z,100699.25
2022-09-14T07:26:26.338Z,100704.00
2022-09-14T07:28:56.405Z,100706.22
2022-09-14T07:31:31.539Z,100698.72
2022-09-14T07:34:02.190Z,100694.03
2022-09-14T07:36:34.880Z,100703.25
2022-09-14T07:39:05.423Z,100699.00
2022-09-14T07:41:35.007Z,100699.06
2022-09-14T07:44:05.112Z,100700.25
2022-09-14T07:46:39.838Z,100693.31
2022-09-14T07:49:09.564Z,100698.25
2022-09-14T07:51:38.373Z,100709.03
2022-09-14T07:54:08.143Z,100702.91
2022-09-14T07:56:36.868Z,100710.84
2022-09-14T08:01:55.517Z,100710.69
2022-09-14T08:04:23.996Z,100722.50
2022-09-14T08:06:52.234Z,100722.50
2022-09-14T08:09:20.497Z,100720.28
2022-09-14T08:11:48.734Z,100718.22
2022-09-14T08:14:16.782Z,100714.19
2022-09-14T08:16:44.999Z,100716.22
2022-09-14T08:19:18.415Z,100713.38
2022-09-14T08:21:47.675Z,100720.72
2022-09-14T08:24:18.702Z,100711.31
2022-09-14T08:26:47.282Z,100708.84
2022-09-14T08:29:16.375Z,100718.50
2022-09-14T08:31:45.908Z,100701.19
2022-09-14T08:34:16.907Z,100701.44
2022-09-14T08:36:46.695Z,100692.72
2022-09-14T08:39:16.569Z,100688.63
2022-09-14T08:41:52.175Z,100689.88
2022-09-14T08:44:24.903Z,100685.41
2022-09-14T08:46:59.281Z,100686.81
2022-09-14T08:49:40.309Z,100689.06
2022-09-14T08:52:14.691Z,100681.13
2022-09-14T08:54:42.813Z,100680.50
2022-09-14T08:57:17.958Z,100688.91
2022-09-14T08:59:54.545Z,100687.47
2022-09-14T09:02:38.016Z,100683.63
2022-09-14T09:05:25.081Z,100681.41
2022-09-14T09:07:58.796Z,100684.50
2022-09-14T09:10:28.449Z,100685.31
2022-09-14T09:12:59.460Z,100688.44
2022-09-14T09:15:31.900Z,100697.03
2022-09-14T09:18:03.416Z,100700.72
2022-09-14T09:20:34.837Z,100710.72
2022-09-14T09:23:11.881Z,100710.78
2022-09-14T09:25:52.562Z,100713.06
2022-09-14T09:28:23.270Z,100714.28
2022-09-14T09:30:51.881Z,100720.03
2022-09-14T09:33:23.366Z,100716.34
2022-09-14T09:35:54.459Z,100717.44
2022-09-14T09:38:25.906Z,100720.91
2022-09-14T09:40:56.424Z,100731.53
2022-09-14T09:43:47.884Z,100728.88
2022-09-14T09:46:13.567Z,100727.44
2022-09-14T09:48:44.366Z,100738.47
2022-09-14T09:51:19.805Z,100732.97
2022-09-14T09:53:53.871Z,100737.28
2022-09-14T09:56:25.352Z,100739.34
2022-09-14T09:58:53.243Z,100745.25
2022-09-14T10:01:24.525Z,100744.25
2022-09-14T10:04:03.852Z,100739.75
2022-09-14T10:06:33.886Z,100749.13
2022-09-14T10:09:02.148Z,100762.63
2022-09-14T10:11:34.120Z,100772.84
2022-09-14T10:14:02.418Z,100775.47
2022-09-14T10:16:39.109Z,100770.16
2022-09-14T10:19:15.407Z,100778.38
2022-09-14T10:22:05.410Z,100784.94
2022-09-14T10:24:35.624Z,100780.00
2022-09-14T10:27:03.809Z,100784.06
2022-09-14T10:29:39.242Z,100785.69
2022-09-14T10:32:18.257Z,100794.69
2022-09-14T10:34:46.653Z,100798.59
2022-09-14T10:37:27.966Z,100795.94
2022-09-14T10:40:10.971Z,100804.94
2022-09-14T10:42:45.071Z,100803.53
2022-09-14T10:45:20.416Z,100806.34
2022-09-14T10:48:06.315Z,100806.78
2022-09-14T10:50:46.391Z,100803.13
2022-09-14T10:53:26.004Z,100804.13
2022-09-14T10:56:01.953Z,100809.44
2022-09-14T10:59:02.783Z,100811.91
2022-09-14T11:01:48.942Z,100827.44
2022-09-14T11:04:33.538Z,100820.09
2022-09-14T11:07:08.327Z,100817.47
2022-09-14T11:09:44.827Z,100815.22
2022-09-14T11:12:21.675Z,100821.56
2022-09-14T11:15:04.854Z,100820.53
2022-09-14T11:17:50.535Z,100828.13
2022-09-14T11:20:31.250Z,100840.34
2022-09-14T11:23:14.208Z,100839.75
2022-09-14T11:25:48.641Z,100842.78
2022-09-14T11:28:23.208Z,100850.59
2022-09-14T11:30:56.885Z,100845.44
2022-09-14T11:33:32.864Z,100846.69
2022-09-14T11:36:05.795Z,100844.84
2022-09-14T11:38:37.799Z,100846.03
2022-09-14T11:41:15.140Z,100850.53
2022-09-14T11:43:48.428Z,100864.47
2022-09-14T11:46:21.822Z,100861.59
2022-09-14T11:48:56.606Z,100864.47
2022-09-14T11:51:28.671Z,100867.56
2022-09-14T11:53:56.946Z,100870.81
2022-09-14T11:56:28.599Z,100880.44
2022-09-14T11:58:58.812Z,100880.44
2022-09-14T12:01:31.004Z,100879.84
2022-09-14T12:04:12.469Z,100887.81
2022-09-14T12:06:58.316Z,100890.25
2022-09-14T12:09:51.648Z,100897.63
2022-09-14T12:12:39.155Z,100900.69
2022-09-14T12:15:22.114Z,100902.94
2022-09-14T12:17:51.434Z,100899.50
2022-09-14T12:20:52.924Z,100913.59
2022-09-14T12:23:28.117Z,100914.03
2022-09-14T12:26:37.856Z,100913.00
2022-09-14T12:29:32.466Z,100926.69
2022-09-14T12:32:23.330Z,100926.72
2022-09-14T12:35:34.191Z,100928.56
2022-09-14T12:38:41.542Z,100927.38
2022-09-14T12:41:42.677Z,100932.91
2022-09-14T12:44:37.572Z,100946.63
2022-09-14T12:47:40.640Z,100954.84
2022-09-14T12:50:17.863Z,100944.19
2022-09-14T12:52:55.932Z,100953.03
2022-09-14T12:55:59.536Z,100964.50
2022-09-14T12:59:01.046Z,100965.50
2022-09-14T13:01:37.689Z,100971.44
2022-09-14T13:04:13.499Z,100963.47
2022-09-14T13:06:45.277Z,100969.19
2022-09-14T13:09:20.442Z,100977.56
2022-09-14T13:11:54.184Z,100972.63
2022-09-14T13:14:25.363Z,100987.38
2022-09-14T13:16:57.252Z,100990.47
2022-09-14T13:19:27.416Z,100989.69
2022-09-14T13:21:57.263Z,100987.22
2022-09-14T13:24:29.132Z,101005.03
2022-09-14T13:26:59.916Z,101009.97
2022-09-14T13:29:28.921Z,101003.63
2022-09-14T13:32:03.566Z,101008.72
2022-09-14T13:34:35.874Z,101011.78
2022-09-14T13:37:05.381Z,101000.13
2022-09-14T13:39:37.124Z,101013.03
2022-09-14T13:42:06.704Z,101006.25
2022-09-14T13:44:36.867Z,101016.91
2022-09-14T13:47:07.484Z,101010.34
2022-09-14T13:49:36.899Z,101016.06
2022-09-14T13:52:49.793Z,101010.34
2022-09-14T13:55:25.070Z,101021.63
2022-09-14T13:58:14.954Z,101014.47
2022-09-14T14:00:59.300Z,101011.78
2022-09-14T14:03:35.001Z,101015.31
2022-09-14T14:06:20.250Z,101012.84
2022-09-14T14:08:55.328Z,101018.78
2022-09-14T14:11:33.168Z,101022.69
2022-09-14T14:14:19.830Z,101031.47
2022-09-14T14:17:21.289Z,101021.03
2022-09-14T14:19:52.414Z,101026.16
2022-09-14T14:22:22.128Z,101016.50
2022-09-14T14:27:44.325Z,101019.19
2022-09-14T14:30:16.418Z,101019.41
2022-09-14T14:32:44.634Z,101013.88
2022-09-14T14:35:20.187Z,101015.72
2022-09-14T14:37:49.030Z,101016.94
2022-09-14T14:40:18.359Z,101013.44
2022-09-14T14:42:46.885Z,101004.44
2022-09-14T14:45:19.327Z,101014.47
2022-09-14T14:47:48.093Z,101008.72
2022-09-14T14:50:20.199Z,101012.81
2022-09-14T14:52:48.276Z,101013.84
2022-09-14T14:55:16.627Z,101010.34
2022-09-14T14:57:44.715Z,101016.53
2022-09-14T15:00:15.731Z,101023.06
2022-09-14T15:02:44.097Z,101023.28
2022-09-14T15:05:13.652Z,101013.00
2022-09-14T15:07:43.381Z,101022.84
2022-09-14T15:10:15.736Z,101018.56
2022-09-14T15:12:44.216Z,101021.22
2022-09-14T15:15:15.098Z,101025.94
2022-09-14T15:17:44.069Z,101014.66
2022-09-14T15:20:13.104Z,101022.25
2022-09-14T15:22:43.295Z,101018.56
2022-09-14T15:25:12.888Z,101012.00
2022-09-14T15:27:41.655Z,101011.78
2022-09-14T15:30:12.552Z,101017.53
2022-09-14T15:32:41.326Z,101016.53
2022-09-14T15:35:11.816Z,101016.53
2022-09-14T15:37:40.008Z,101016.53
2022-09-14T15:40:10.979Z,101010.56
2022-09-14T15:42:39.210Z,101016.09
2022-09-14T15:45:09.068Z,101025.13
2022-09-14T15:47:37.260Z,101017.13
2022-09-14T15:50:07.304Z,101019.56
2022-09-14T15:52:37.143Z,101015.28
2022-09-14T15:55:05.835Z,101020.41
2022-09-14T15:57:35.991Z,101020.59
2022-09-14T16:00:06.358Z,101027.19
2022-09-14T16:02:34.504Z,101028.63
2022-09-14T16:05:02.760Z,101030.06
2022-09-14T16:07:31.040Z,101022.28
2022-09-14T16:09:59.358Z,101032.94
2022-09-14T16:12:27.785Z,101020.59
2022-09-14T16:14:57.266Z,101029.63
2022-09-14T16:17:25.532Z,101024.94
2022-09-14T16:19:53.558Z,101025.53
2022-09-14T16:22:21.938Z,101023.50
2022-09-14T16:24:50.246Z,101033.34
2022-09-14T16:27:18.537Z,101027.38
2022-09-14T16:29:46.703Z,101031.69
2022-09-14T16:32:16.726Z,101033.94
2022-09-14T16:34:44.818Z,101037.03
2022-09-14T16:37:13.241Z,101045.41
2022-09-14T16:39:41.920Z,101043.97
2022-09-14T16:42:09.968Z,101037.00
2022-09-14T16:44:38.053Z,101044.16
2022-09-14T16:47:06.383Z,101044.38
2022-09-14T16:49:37.221Z,101046.00
2022-09-14T16:52:05.370Z,101051.34
2022-09-14T16:54:33.489Z,101045.41
2022-09-14T16:57:01.614Z,101039.44
2022-09-14T16:59:29.733Z,101049.28
2022-09-14T17:01:58.035Z,101046.41
2022-09-14T17:04:26.381Z,101041.91
2022-09-14T17:06:56.842Z,101043.97
2022-09-14T17:09:27.367Z,101048.69
2022-09-14T17:11:56.496Z,101046.03
2022-09-14T17:14:27.455Z,101046.19
2022-09-14T17:16:55.598Z,101049.88
2022-09-14T17:19:24.881Z,101055.59
2022-09-14T17:21:53.235Z,101052.13
2022-09-14T17:24:23.099Z,101052.56
2022-09-14T17:26:51.609Z,101051.31
2022-09-14T17:29:19.840Z,101057.84
2022-09-14T17:31:48.109Z,101063.38
2022-09-14T17:34:17.847Z,101060.28
2022-09-14T17:36:46.396Z,101067.66
2022-09-14T17:39:15.660Z,101071.53
2022-09-14T17:41:45.440Z,101067.63
2022-09-14T17:44:16.107Z,101068.84
2022-09-14T17:46:52.055Z,101074.75
2022-09-14T17:49:21.244Z,101077.59
2022-09-14T17:51:49.856Z,101088.44
2022-09-14T17:54:18.579Z,101091.50
2022-09-14T17:56:48.885Z,101096.19
2022-09-14T17:59:20.318Z,101091.69
2022-09-14T18:01:49.403Z,101093.94
2022-09-14T18:04:18.256Z,101097.00
2022-09-14T18:06:48.269Z,101096.19
2022-09-14T18:09:17.931Z,101093.91
2022-09-14T18:11:47.880Z,101089.78
2022-09-14T18:14:17.023Z,101094.50
2022-09-14T18:16:45.678Z,101096.94
2022-09-14T18:19:14.892Z,101087.94
2022-09-14T18:21:44.582Z,101098.97
2022-09-14T18:24:15.986Z,101102.63
2022-09-14T18:26:46.314Z,101103.88
2022-09-14T18:29:18.601Z,101112.84
2022-09-14T18:31:47.357Z,101106.28
2022-09-14T18:34:15.437Z,101108.13
2022-09-14T18:36:43.572Z,101109.94
2022-09-14T18:39:13.042Z,101109.13
2022-09-14T18:41:41.472Z,101115.69
2022-09-14T18:44:09.714Z,101114.84
2022-09-14T18:46:39.868Z,101123.22
2022-09-14T18:49:07.912Z,101123.84
2022-09-14T18:51:35.972Z,101133.84
2022-09-14T18:54:06.980Z,101127.50
2022-09-14T18:56:37.175Z,101133.84
2022-09-14T18:59:07.684Z,101140.19
2022-09-14T19:01:37.606Z,101132.22
2022-09-14T19:04:09.291Z,101135.06
2022-09-14T19:06:38.025Z,101138.13
2022-09-14T19:09:07.574Z,101145.06
2022-09-14T19:11:36.855Z,101148.53
2022-09-14T19:14:10.167Z,101151.19
2022-09-14T19:16:40.016Z,101150.38
2022-09-14T19:19:12.185Z,101154.88
2022-09-14T19:21:40.374Z,101147.13
2022-09-14T19:24:12.266Z,101141.78
2022-09-14T19:26:45.201Z,101136.47
2022-09-14T19:29:14.450Z,101136.03
2022-09-14T19:31:43.496Z,101138.69
2022-09-14T19:34:13.203Z,101149.13
2022-09-14T19:36:41.588Z,101139.72
2022-09-14T19:39:10.075Z,101149.34
2022-09-14T19:41:38.910Z,101143.19
2022-09-14T19:44:07.889Z,101143.19
2022-09-14T19:46:39.830Z,101141.53
2022-09-14T19:49:08.524Z,101143.56
2022-09-14T19:51:38.087Z,101149.09
2022-09-14T19:54:06.228Z,101150.69
2022-09-14T19:56:34.503Z,101154.53
2022-09-14T19:59:04.933Z,101146.34
2022-09-14T20:01:34.592Z,101149.78
2022-09-14T20:04:03.432Z,101145.03
2022-09-14T20:06:33.884Z,101151.75
2022-09-14T20:09:05.387Z,101143.53
2022-09-14T20:11:35.045Z,101152.06
2022-09-14T20:14:05.040Z,101154.44
2022-09-14T20:16:36.167Z,101152.34
2022-09-14T20:19:07.894Z,101157.41
2022-09-14T20:21:37.674Z,101156.97
2022-09-14T20:24:17.397Z,101156.31
2022-09-14T20:26:46.424Z,101151.56
2022-09-14T20:29:15.709Z,101154.63
2022-09-14T20:31:44.669Z,101158.47
2022-09-14T20:34:13.307Z,101155.34
2022-09-14T20:36:41.510Z,101158.22
2022-09-14T20:39:11.265Z,101163.06
2022-09-14T20:41:39.942Z,101164.28
2022-09-14T20:44:08.161Z,101176.28
2022-09-14T20:46:41.132Z,101172.81
2022-09-14T20:49:11.574Z,101181.78
2022-09-14T20:51:40.864Z,101185.06
2022-09-14T20:54:12.830Z,101188.19
2022-09-14T20:56:41.941Z,101187.16
2022-09-14T20:59:13.055Z,101192.09
2022-09-14T21:01:43.283Z,101186.59
2022-09-14T21:04:13.526Z,101193.19
2022-09-14T21:06:43.295Z,101188.31
2022-09-14T21:09:14.265Z,101193.25
2022-09-14T21:11:45.874Z,101189.59
2022-09-14T21:14:14.758Z,101183.88
2022-09-14T21:16:46.176Z,101186.75
2022-09-14T21:19:16.910Z,101190.66
2022-09-14T21:21:45.158Z,101189.00
2022-09-14T21:24:15.647Z,101185.53
2022-09-14T21:26:44.819Z,101185.34
2022-09-14T21:29:15.026Z,101189.00
2022-09-14T21:31:43.258Z,101186.53
2022-09-14T21:34:12.859Z,101192.69
2022-09-14T21:36:44.347Z,101197.63
2022-09-14T21:39:16.536Z,101187.81
2022-09-14T21:41:46.397Z,101192.31
2022-09-14T21:44:15.261Z,101186.19
2022-09-14T21:46:43.772Z,101194.78
2022-09-14T21:49:15.292Z,101200.72
2022-09-14T21:51:44.440Z,101202.13
2022-09-14T21:54:14.327Z,101211.09
2022-09-14T21:56:45.745Z,101218.41
2022-09-14T21:59:15.374Z,101216.41
2022-09-14T22:01:44.057Z,101216.41
2022-09-14T22:04:15.184Z,101218.41
2022-09-14T22:06:45.187Z,101216.78
2022-09-14T22:09:14.172Z,101217.78
2022-09-14T22:11:43.947Z,101225.09
2022-09-14T22:14:14.801Z,101230.97
2022-09-14T22:16:43.688Z,101239.75
2022-09-14T22:19:15.950Z,101233.84
2022-09-14T22:21:44.742Z,101246.84
2022-09-14T22:24:15.407Z,101234.13
2022-09-14T22:26:45.382Z,101224.88
2022-09-14T22:29:14.818Z,101218.75
2022-09-14T22:31:44.667Z,101209.97
2022-09-14T22:34:13.741Z,101212.81
2022-09-14T22:36:42.205Z,101200.53
2022-09-14T22:39:11.708Z,101199.09
2022-09-14T22:41:40.881Z,101197.63
2022-09-14T22:44:12.287Z,101193.94
2022-09-14T22:46:40.660Z,101194.97
2022-09-14T22:49:09.089Z,101192.72
2022-09-14T22:51:37.403Z,101188.03
2022-09-14T22:54:05.920Z,101187.00
2022-09-14T22:56:36.068Z,101189.50
2022-09-14T22:59:07.090Z,101185.44
2022-09-14T23:01:39.754Z,101194.25
2022-09-14T23:04:10.149Z,101198.53
2022-09-14T23:06:40.556Z,101201.81
2022-09-14T23:09:10.494Z,101208.97
2022-09-14T23:11:39.005Z,101211.41
2022-09-14T23:14:07.034Z,101213.66
2022-09-14T23:16:36.573Z,101207.50
2022-09-14T23:19:07.919Z,101198.16
2022-09-14T23:21:37.174Z,101201.00
2022-09-14T23:24:07.531Z,101196.50
2022-09-14T23:26:35.814Z,101195.50
2022-09-14T23:29:06.234Z,101191.19
2022-09-14T23:31:34.783Z,101189.56
2022-09-14T23:34:05.800Z,101191.59
2022-09-14T23:36:34.445Z,101190.56
2022-09-14T23:39:03.270Z,101190.56
2022-09-14T23:41:31.603Z,101188.19
2022-09-14T23:43:59.777Z,101187.78
2022-09-14T23:46:28.031Z,101188.44
2022-09-14T23:48:56.187Z,101188.19
2022-09-14T23:51:25.660Z,101192.41
2022-09-14T23:53:53.794Z,101201.25
2022-09-14T23:56:21.975Z,101203.09
2022-09-14T23:58:50.665Z,101203.09
